Time;durP1;ratioP1;P1;durP2;ratioP2;P2;SDS_P1;SDS_P2;PMS_P1;PMS_P2;Temp;Humidity;BMP_temperature;BMP_pressure;BME280_temperature;BME280_humidity;BME280_pressure;Samples;Min_cycle;Max_cycle;Signal;HPM_P1;HPM_P2
2023/03/31 00:01:10;;;;;;;2.90;0.80;;;10.30;99.90;;;;;;5052773;28;20450;-80
2023/03/31 00:03:42;;;;;;;0.40;0.30;;;10.40;99.90;;;;;;5052492;28;20430;-80
2023/03/31 00:06:10;;;;;;;1.53;0.40;;;10.40;99.90;;;;;;5052649;28;20801;-80
2023/03/31 00:08:39;;;;;;;0.40;0.30;;;10.40;99.90;;;;;;5052680;28;20446;-80
2023/03/31 00:11:07;;;;;;;3.13;0.40;;;10.40;99.90;;;;;;5052311;28;20482;-79
2023/03/31 00:13:34;;;;;;;0.60;0.60;;;10.40;99.90;;;;;;5052729;28;20423;-80
2023/03/31 00:16:02;;;;;;;1.03;0.57;;;10.40;99.90;;;;;;5052317;28;20942;-79
2023/03/31 00:18:30;;;;;;;0.40;0.40;;;10.40;99.90;;;;;;5052339;28;20442;-80
2023/03/31 00:21:07;;;;;;;0.40;0.40;;;10.40;99.90;;;;;;5052594;28;20450;-80
2023/03/31 00:23:34;;;;;;;0.77;0.50;;;10.40;99.90;;;;;;5055489;28;20453;-80
2023/03/31 00:26:01;;;;;;;0.50;0.40;;;10.40;99.90;;;;;;5055730;28;20581;-80
2023/03/31 00:28:27;;;;;;;0.40;0.40;;;10.40;99.90;;;;;;5056102;28;20453;-79
2023/03/31 00:30:59;;;;;;;0.50;0.40;;;10.50;99.90;;;;;;5056088;28;20442;-80
2023/03/31 00:33:26;;;;;;;2.07;0.97;;;10.50;99.90;;;;;;5055827;28;20970;-79
2023/03/31 00:35:54;;;;;;;0.50;0.50;;;10.50;99.90;;;;;;5056005;28;20450;-80
2023/03/31 00:38:21;;;;;;;0.60;0.40;;;10.50;99.90;;;;;;5055969;28;20458;-80
2023/03/31 00:40:48;;;;;;;0.83;0.83;;;10.50;99.90;;;;;;5055354;28;21049;-80
2023/03/31 00:43:34;;;;;;;0.80;0.57;;;10.50;99.90;;;;;;5055424;28;20454;-80
2023/03/31 00:46:06;;;;;;;0.70;0.50;;;10.50;99.90;;;;;;5055749;28;20478;-80
2023/03/31 00:48:36;;;;;;;0.60;0.60;;;10.50;99.90;;;;;;5055461;28;20467;-79
2023/03/31 00:51:06;;;;;;;0.80;0.60;;;10.50;99.90;;;;;;5055465;28;20453;-80
2023/03/31 00:53:36;;;;;;;0.60;0.60;;;10.50;99.90;;;;;;5055458;28;20976;-80
2023/03/31 00:56:08;;;;;;;0.40;0.40;;;10.50;99.90;;;;;;5055673;28;20430;-79
2023/03/31 00:58:42;;;;;;;1.00;0.50;;;10.50;99.90;;;;;;5055338;28;20420;-80
2023/03/31 01:01:13;;;;;;;0.93;0.87;;;10.60;99.90;;;;;;5055607;28;20466;-80
2023/03/31 01:03:41;;;;;;;0.50;0.47;;;10.60;99.90;;;;;;5055621;28;20453;-80
2023/03/31 01:06:10;;;;;;;0.97;0.50;;;10.60;99.90;;;;;;5055090;28;21052;-80
2023/03/31 01:08:38;;;;;;;0.97;0.70;;;10.60;99.90;;;;;;5055334;28;20443;-80
2023/03/31 01:11:06;;;;;;;0.40;0.30;;;10.70;99.90;;;;;;5054862;28;20481;-80
2023/03/31 01:13:36;;;;;;;1.47;0.90;;;10.70;99.90;;;;;;5055314;28;20451;-80
2023/03/31 01:16:03;;;;;;;0.50;0.50;;;10.70;99.90;;;;;;5055233;28;20973;-80
2023/03/31 01:18:33;;;;;;;0.87;0.70;;;10.70;99.90;;;;;;5055149;28;20451;-79
2023/03/31 01:21:37;;;;;;;0.70;0.60;;;10.70;99.90;;;;;;5055186;28;20470;-80
2023/03/31 01:24:46;;;;;;;0.50;0.50;;;10.70;99.90;;;;;;5055069;28;20430;-80
2023/03/31 01:27:37;;;;;;;1.60;0.67;;;10.60;99.90;;;;;;5054716;28;20462;-80
2023/03/31 01:30:27;;;;;;;0.57;0.57;;;10.60;99.90;;;;;;5055167;28;20466;-80
2023/03/31 01:33:19;;;;;;;0.60;0.60;;;10.60;99.90;;;;;;5054949;28;20438;-80
2023/03/31 01:36:25;;;;;;;1.07;0.70;;;10.70;99.90;;;;;;5054697;28;20435;-78
2023/03/31 01:39:31;;;;;;;0.57;0.57;;;10.60;99.90;;;;;;5021000;28;20544;-78
2023/03/31 01:42:05;;;;;;;0.57;0.57;;;10.60;99.90;;;;;;5054858;28;20462;-78
2023/03/31 01:44:42;;;;;;;1.77;0.87;;;10.50;99.90;;;;;;5054747;28;20437;-78
2023/03/31 01:47:17;;;;;;;0.70;0.40;;;10.40;99.90;;;;;;5054366;28;20458;-77
2023/03/31 01:49:49;;;;;;;0.73;0.50;;;10.20;99.90;;;;;;5054443;28;20470;-77
2023/03/31 01:52:22;;;;;;;2.50;0.83;;;10.10;99.90;;;;;;5054590;28;20446;-77
2023/03/31 01:54:55;;;;;;;2.50;0.50;;;10.00;99.90;;;;;;5054792;28;20439;-77
2023/03/31 01:57:27;;;;;;;0.70;0.43;;;9.90;99.90;;;;;;5054490;28;20427;-78
2023/03/31 02:00:02;;;;;;;0.97;0.70;;;9.90;99.90;;;;;;5054489;28;20838;-78
2023/03/31 02:02:32;;;;;;;0.60;0.50;;;9.90;99.90;;;;;;5054417;28;20434;-78
2023/03/31 02:05:01;;;;;;;0.40;0.40;;;9.80;99.90;;;;;;5054299;28;20431;-78
2023/03/31 02:07:34;;;;;;;0.40;0.40;;;9.80;99.90;;;;;;5053936;28;21128;-78
2023/03/31 02:10:04;;;;;;;0.40;0.40;;;9.70;99.90;;;;;;5054186;28;20850;-78
2023/03/31 02:12:35;;;;;;;4.53;0.80;;;9.60;99.90;;;;;;5054037;28;20885;-78
2023/03/31 02:15:08;;;;;;;0.50;0.50;;;9.60;99.90;;;;;;5054282;28;20801;-78
2023/03/31 02:17:39;;;;;;;0.50;0.50;;;9.60;99.90;;;;;;5054171;28;20433;-78
2023/03/31 02:20:11;;;;;;;1.30;0.80;;;9.60;99.90;;;;;;5054135;28;20845;-78
2023/03/31 02:22:41;;;;;;;0.40;0.40;;;9.50;99.90;;;;;;5054115;28;20435;-78
2023/03/31 02:25:11;;;;;;;9.17;0.60;;;9.50;99.90;;;;;;5053750;28;20437;-78
2023/03/31 02:27:41;;;;;;;1.37;0.50;;;9.50;99.90;;;;;;5053901;28;20486;-78
2023/03/31 02:30:10;;;;;;;0.40;0.40;;;9.60;99.90;;;;;;5053587;28;20475;-78
2023/03/31 02:32:38;;;;;;;0.90;0.80;;;9.50;99.90;;;;;;5053527;28;20438;-78
2023/03/31 02:35:07;;;;;;;0.50;0.50;;;9.50;99.90;;;;;;5053824;28;20443;-78
2023/03/31 02:37:34;;;;;;;0.40;0.30;;;9.50;99.90;;;;;;5053775;28;20491;-78
2023/03/31 02:40:07;;;;;;;0.77;0.50;;;9.50;99.90;;;;;;5053315;28;20466;-78
2023/03/31 02:42:34;;;;;;;0.93;0.60;;;9.50;99.90;;;;;;5053682;28;20497;-78
2023/03/31 02:45:24;;;;;;;1.20;0.77;;;9.40;99.90;;;;;;5053254;28;20973;-78
2023/03/31 02:47:51;;;;;;;1.10;0.67;;;9.40;99.90;;;;;;5053094;28;21092;-78
2023/03/31 02:50:19;;;;;;;0.77;0.57;;;9.40;99.90;;;;;;5053185;28;20996;-78
2023/03/31 02:52:55;;;;;;;0.40;0.30;;;9.40;99.90;;;;;;5054161;28;20858;-78
2023/03/31 02:55:47;;;;;;;0.50;0.40;;;9.40;99.90;;;;;;5053563;28;20430;-78
2023/03/31 02:58:44;;;;;;;1.20;1.10;;;9.40;99.90;;;;;;5054163;28;20843;-78
2023/03/31 03:01:27;;;;;;;1.70;0.77;;;9.40;99.90;;;;;;5053944;28;20864;-78
2023/03/31 03:04:08;;;;;;;0.70;0.50;;;9.40;99.90;;;;;;5053392;28;20493;-78
2023/03/31 03:06:42;;;;;;;1.37;0.73;;;9.40;99.90;;;;;;5053311;28;20504;-78
2023/03/31 03:09:23;;;;;;;0.90;0.50;;;9.30;99.90;;;;;;5053266;28;20465;-78
2023/03/31 03:11:55;;;;;;;0.40;0.37;;;9.30;99.90;;;;;;5033606;28;20431;-78
2023/03/31 03:14:31;;;;;;;0.53;0.53;;;9.30;99.90;;;;;;5033331;28;20436;-78
2023/03/31 03:17:04;;;;;;;1.87;0.63;;;9.20;99.90;;;;;;5033329;28;20423;-78
2023/03/31 03:19:30;;;;;;;1.07;0.70;;;9.20;99.90;;;;;;5033241;28;20466;-78
2023/03/31 03:21:58;;;;;;;1.40;0.47;;;9.20;99.90;;;;;;5033232;28;20859;-78
2023/03/31 03:24:28;;;;;;;0.70;0.60;;;9.10;99.90;;;;;;5033202;28;20451;-78
2023/03/31 03:26:55;;;;;;;0.53;0.50;;;9.10;99.90;;;;;;5033141;28;20479;-78
2023/03/31 03:29:22;;;;;;;1.23;0.50;;;9.20;99.90;;;;;;5033116;28;20478;-84
2023/03/31 03:31:49;;;;;;;0.60;0.40;;;9.10;99.90;;;;;;5033220;28;20951;-83
2023/03/31 03:34:18;;;;;;;1.53;1.10;;;9.10;99.90;;;;;;5032998;28;20486;-84
2023/03/31 03:36:46;;;;;;;0.50;0.50;;;9.10;99.90;;;;;;5032829;28;20443;-84
2023/03/31 03:39:13;;;;;;;1.57;0.53;;;9.10;99.90;;;;;;5032691;28;20978;-84
2023/03/31 03:41:40;;;;;;;0.40;0.40;;;9.10;99.90;;;;;;5033060;28;20455;-84
2023/03/31 03:44:06;;;;;;;1.53;0.70;;;9.10;99.90;;;;;;5033314;28;20455;-84
2023/03/31 03:46:33;;;;;;;1.20;0.57;;;9.20;99.90;;;;;;5032694;28;20454;-84
2023/03/31 03:49:00;;;;;;;0.90;0.30;;;9.20;99.90;;;;;;5032926;28;20490;-84
2023/03/31 03:51:28;;;;;;;3.60;1.00;;;9.20;99.90;;;;;;5032666;28;20947;-83
2023/03/31 03:53:54;;;;;;;1.87;0.70;;;9.20;99.90;;;;;;5032954;28;20458;-84
2023/03/31 03:56:21;;;;;;;1.00;0.63;;;9.20;99.90;;;;;;5032911;28;20456;-85
2023/03/31 03:58:48;;;;;;;14.90;1.03;;;9.20;99.90;;;;;;5035898;28;20990;-80
2023/03/31 04:01:15;;;;;;;0.80;0.80;;;9.10;99.90;;;;;;5036754;28;20448;-80
2023/03/31 04:03:42;;;;;;;0.57;0.50;;;9.10;99.90;;;;;;5036417;28;20451;-85
2023/03/31 04:06:08;;;;;;;3.77;1.33;;;9.00;99.90;;;;;;5036481;28;20955;-86
2023/03/31 04:08:36;;;;;;;3.73;0.50;;;9.00;99.90;;;;;;5036615;28;20487;-86
2023/03/31 04:11:04;;;;;;;0.40;0.40;;;9.00;99.90;;;;;;5051049;28;20482;-86
2023/03/31 04:13:30;;;;;;;0.60;0.60;;;8.90;99.90;;;;;;5056286;28;20449;-86
2023/03/31 04:15:57;;;;;;;0.80;0.70;;;8.90;99.90;;;;;;5056517;28;20450;-86
2023/03/31 04:18:24;;;;;;;1.70;0.50;;;8.90;99.90;;;;;;5056199;28;20445;-86
2023/03/31 04:21:02;;;;;;;20.93;1.33;;;8.90;99.90;;;;;;5056216;28;20474;-86
2023/03/31 04:23:29;;;;;;;0.50;0.40;;;8.90;99.90;;;;;;5056422;28;20434;-86
2023/03/31 04:25:57;;;;;;;0.60;0.60;;;8.90;99.90;;;;;;5056388;28;20447;-86
2023/03/31 04:28:25;;;;;;;1.57;0.80;;;8.90;99.90;;;;;;5055938;28;20481;-86
2023/03/31 04:30:53;;;;;;;0.73;0.70;;;9.00;99.90;;;;;;5057210;28;20478;-85
2023/03/31 04:33:20;;;;;;;0.57;0.57;;;9.00;99.90;;;;;;5056064;28;20946;-86
2023/03/31 04:35:51;;;;;;;2.77;0.87;;;9.00;99.90;;;;;;5056204;28;20446;-86
2023/03/31 04:38:19;;;;;;;1.13;0.77;;;9.10;99.90;;;;;;5056236;28;20837;-86
2023/03/31 04:40:47;;;;;;;0.80;0.80;;;9.10;99.90;;;;;;5055984;28;20466;-86
2023/03/31 04:43:16;;;;;;;2.00;0.80;;;9.20;99.90;;;;;;5056074;28;20455;-86
2023/03/31 04:45:43;;;;;;;1.63;1.07;;;9.20;99.90;;;;;;5055930;28;20442;-86
2023/03/31 04:48:10;;;;;;;0.77;0.63;;;9.30;99.90;;;;;;5055590;28;21005;-86
2023/03/31 04:50:37;;;;;;;0.60;0.60;;;9.30;99.90;;;;;;5055805;28;21000;-86
2023/03/31 04:53:04;;;;;;;0.67;0.67;;;9.40;99.90;;;;;;5055765;28;20454;-86
2023/03/31 04:55:32;;;;;;;1.77;0.80;;;9.40;99.90;;;;;;5055897;28;20827;-86
2023/03/31 04:57:59;;;;;;;3.17;0.70;;;9.40;99.90;;;;;;5055894;28;20438;-86
2023/03/31 05:00:27;;;;;;;0.70;0.70;;;9.50;99.90;;;;;;5055659;28;20525;-86
2023/03/31 05:02:54;;;;;;;3.13;1.03;;;9.50;99.90;;;;;;5056548;28;20458;-85
2023/03/31 05:05:21;;;;;;;2.00;1.27;;;9.50;99.90;;;;;;5055221;28;20454;-85
2023/03/31 05:07:48;;;;;;;0.80;0.67;;;9.40;99.90;;;;;;5055307;28;20485;-84
2023/03/31 05:10:15;;;;;;;2.33;1.13;;;9.30;99.90;;;;;;5053871;28;20486;-84
2023/03/31 05:12:41;;;;;;;1.90;0.80;;;9.30;99.90;;;;;;5055350;28;20454;-84
2023/03/31 05:15:09;;;;;;;0.83;0.83;;;9.20;99.90;;;;;;5055558;28;20930;-84
2023/03/31 05:17:37;;;;;;;1.93;1.00;;;9.20;99.90;;;;;;5055243;28;20451;-83
2023/03/31 05:20:07;;;;;;;1.37;0.70;;;9.10;99.90;;;;;;5055114;28;20830;-84
2023/03/31 05:22:35;;;;;;;0.93;0.90;;;9.20;99.90;;;;;;5055162;28;20501;-83
2023/03/31 05:25:02;;;;;;;2.57;1.13;;;9.20;99.90;;;;;;5054971;28;20950;-82
2023/03/31 05:27:29;;;;;;;1.27;1.00;;;9.10;99.90;;;;;;5055711;28;20494;-81
2023/03/31 05:29:56;;;;;;;0.87;0.50;;;9.10;99.90;;;;;;5056083;28;20451;-80
2023/03/31 05:32:23;;;;;;;0.73;0.50;;;9.10;99.90;;;;;;5055194;28;20446;-82
2023/03/31 05:34:55;;;;;;;1.70;1.00;;;9.00;99.90;;;;;;5054655;28;20443;-81
2023/03/31 05:37:22;;;;;;;1.47;0.60;;;9.00;99.90;;;;;;5055109;28;20487;-81
2023/03/31 05:39:49;;;;;;;0.73;0.73;;;8.90;99.90;;;;;;5054771;28;20469;-80
2023/03/31 05:42:16;;;;;;;0.80;0.60;;;8.90;99.90;;;;;;5054795;28;20442;-80
2023/03/31 05:44:43;;;;;;;2.13;1.73;;;8.90;99.90;;;;;;5054707;28;20918;-80
2023/03/31 05:47:09;;;;;;;0.80;0.60;;;8.90;99.90;;;;;;5054675;28;20476;-81
2023/03/31 05:49:37;;;;;;;1.07;0.60;;;8.80;99.90;;;;;;5054716;28;20490;-81
2023/03/31 05:52:05;;;;;;;2.00;0.70;;;8.90;99.90;;;;;;5054302;28;20449;-81
2023/03/31 05:54:32;;;;;;;1.10;1.00;;;8.80;99.90;;;;;;5054628;28;20466;-78
2023/03/31 05:56:59;;;;;;;0.40;0.40;;;8.90;99.90;;;;;;5054460;28;20462;-78
2023/03/31 05:59:27;;;;;;;0.50;0.50;;;8.90;99.90;;;;;;5054407;28;20467;-79
2023/03/31 06:01:54;;;;;;;0.50;0.50;;;8.90;99.90;;;;;;5054111;28;20450;-79
2023/03/31 06:04:20;;;;;;;0.60;0.50;;;8.90;99.90;;;;;;5054353;28;20450;-79
2023/03/31 06:06:49;;;;;;;1.20;0.97;;;8.90;99.90;;;;;;5054031;28;20435;-79
2023/03/31 06:09:17;;;;;;;1.47;0.87;;;8.90;99.90;;;;;;5054118;28;20574;-80
2023/03/31 06:11:44;;;;;;;0.80;0.60;;;9.00;99.90;;;;;;5033993;28;20817;-80
2023/03/31 06:14:11;;;;;;;0.70;0.70;;;9.00;99.90;;;;;;5034279;28;20509;-81
2023/03/31 06:16:38;;;;;;;0.57;0.57;;;8.90;99.90;;;;;;5034130;28;20459;-81
2023/03/31 06:19:05;;;;;;;0.60;0.60;;;9.00;99.90;;;;;;5034291;28;20463;-81
2023/03/31 06:21:32;;;;;;;0.90;0.50;;;8.90;99.90;;;;;;5033849;28;20453;-81
2023/03/31 06:23:59;;;;;;;1.20;0.63;;;9.00;99.90;;;;;;5034123;28;20450;-79
2023/03/31 06:26:27;;;;;;;0.50;0.50;;;8.90;99.90;;;;;;5034065;28;20451;-79
2023/03/31 06:28:54;;;;;;;0.93;0.70;;;8.90;99.90;;;;;;5033882;28;20853;-79
2023/03/31 06:31:23;;;;;;;1.17;0.70;;;8.90;99.90;;;;;;5033845;28;20444;-78
2023/03/31 06:33:50;;;;;;;0.70;0.60;;;8.90;99.90;;;;;;5033975;28;20451;-78
2023/03/31 06:36:19;;;;;;;1.53;1.10;;;8.90;99.90;;;;;;5033997;28;20405;-78
2023/03/31 06:38:47;;;;;;;1.57;0.87;;;8.90;99.90;;;;;;5034047;28;20443;-79
2023/03/31 06:41:15;;;;;;;0.67;0.50;;;8.90;99.90;;;;;;5033535;28;20938;-79
2023/03/31 06:43:43;;;;;;;0.70;0.60;;;8.80;99.90;;;;;;5034345;28;20807;-78
2023/03/31 06:46:10;;;;;;;1.00;1.00;;;8.80;99.90;;;;;;5033709;28;20458;-78
2023/03/31 06:48:37;;;;;;;1.50;1.10;;;8.90;99.90;;;;;;5033206;28;20491;-77
2023/03/31 06:51:06;;;;;;;0.63;0.60;;;8.80;99.90;;;;;;5033651;28;20423;-77
2023/03/31 06:53:32;;;;;;;0.83;0.83;;;8.90;99.90;;;;;;5033564;28;20454;-77
2023/03/31 06:55:59;;;;;;;1.57;0.80;;;8.90;99.90;;;;;;5033532;28;20459;-77
2023/03/31 06:58:26;;;;;;;1.33;1.00;;;8.80;99.90;;;;;;5033072;28;20454;-77
2023/03/31 07:00:54;;;;;;;5.60;1.20;;;8.90;99.90;;;;;;5033208;28;20475;-77
2023/03/31 07:03:23;;;;;;;1.23;0.70;;;8.90;99.90;;;;;;5033124;28;20436;-78
2023/03/31 07:05:51;;;;;;;0.57;0.43;;;8.90;99.90;;;;;;5033429;28;20530;-77
2023/03/31 07:08:18;;;;;;;1.23;0.70;;;8.90;99.90;;;;;;5033505;28;20479;-77
2023/03/31 07:10:47;;;;;;;0.50;0.50;;;8.90;99.90;;;;;;5044936;28;20841;-78
2023/03/31 07:13:14;;;;;;;1.00;0.43;;;8.80;99.90;;;;;;5053316;28;20520;-79
2023/03/31 07:15:41;;;;;;;0.70;0.70;;;8.80;99.90;;;;;;5053167;28;20461;-79
2023/03/31 07:18:11;;;;;;;3.20;0.93;;;8.80;99.90;;;;;;5053257;28;20455;-79
2023/03/31 07:20:38;;;;;;;0.60;0.40;;;8.80;99.90;;;;;;5053214;28;20551;-79
2023/03/31 07:23:05;;;;;;;1.03;0.60;;;8.70;99.90;;;;;;5053246;28;20473;-79
2023/03/31 07:25:32;;;;;;;0.60;0.60;;;8.70;99.90;;;;;;5053191;28;20545;-79
2023/03/31 07:27:59;;;;;;;0.80;0.70;;;8.70;99.90;;;;;;5053101;28;20458;-79
2023/03/31 07:30:26;;;;;;;0.40;0.40;;;8.70;99.90;;;;;;5053044;28;20471;-79
2023/03/31 07:32:53;;;;;;;0.30;0.30;;;8.80;99.90;;;;;;5054918;28;20442;-79
2023/03/31 07:35:22;;;;;;;0.30;0.30;;;9.00;99.90;;;;;;5056870;28;20508;-80
2023/03/31 07:37:50;;;;;;;0.30;0.30;;;9.00;99.90;;;;;;5057233;28;20484;-80
2023/03/31 07:40:19;;;;;;;1.00;0.90;;;9.10;99.90;;;;;;5057018;28;20470;-81
2023/03/31 07:42:47;;;;;;;0.50;0.30;;;9.30;99.90;;;;;;5039428;28;20533;-81
2023/03/31 07:45:14;;;;;;;0.30;0.20;;;9.40;99.90;;;;;;5056732;28;20828;-81
2023/03/31 07:47:42;;;;;;;5.60;0.30;;;9.50;99.90;;;;;;5056901;28;20541;-81
2023/03/31 07:50:09;;;;;;;0.30;0.20;;;9.60;99.90;;;;;;5056781;28;20490;-82
2023/03/31 07:52:38;;;;;;;0.30;0.30;;;9.70;99.90;;;;;;5056859;28;20478;-80
2023/03/31 07:55:05;;;;;;;0.30;0.30;;;9.70;99.90;;;;;;5056841;28;20485;-79
2023/03/31 07:57:32;;;;;;;0.40;0.30;;;9.80;99.90;;;;;;5056707;28;20465;-80
2023/03/31 07:59:59;;;;;;;0.57;0.57;;;9.90;99.90;;;;;;5056481;28;20458;-79
2023/03/31 08:02:26;;;;;;;0.30;0.30;;;9.90;99.90;;;;;;5056743;28;20450;-80
2023/03/31 08:04:52;;;;;;;1.37;0.43;;;10.00;99.90;;;;;;5056390;28;20949;-80
2023/03/31 08:07:19;;;;;;;0.40;0.30;;;10.10;99.90;;;;;;5056640;28;20449;-79
2023/03/31 08:09:48;;;;;;;0.43;0.30;;;10.20;99.90;;;;;;5055890;28;21006;-79
2023/03/31 08:12:15;;;;;;;0.40;0.30;;;10.30;99.90;;;;;;5056521;28;20446;-80
2023/03/31 08:14:42;;;;;;;0.30;0.30;;;10.50;99.90;;;;;;5056405;28;20446;-80
2023/03/31 08:17:09;;;;;;;0.57;0.40;;;10.60;99.90;;;;;;5056338;28;20950;-80
2023/03/31 08:19:35;;;;;;;0.67;0.30;;;10.80;99.90;;;;;;5056276;28;20463;-80
2023/03/31 08:22:02;;;;;;;0.40;0.40;;;10.90;99.90;;;;;;5056362;28;20438;-80
2023/03/31 08:24:29;;;;;;;0.57;0.37;;;11.10;99.90;;;;;;5055971;28;20942;-81
2023/03/31 08:26:57;;;;;;;0.30;0.30;;;11.10;99.90;;;;;;5056192;28;20541;-81
2023/03/31 08:29:24;;;;;;;0.70;0.40;;;11.30;99.90;;;;;;5055926;28;20492;-82
2023/03/31 08:31:51;;;;;;;0.70;0.47;;;11.40;99.90;;;;;;5056161;28;20508;-81
2023/03/31 08:34:17;;;;;;;0.40;0.37;;;11.60;99.90;;;;;;5055994;28;20450;-82
2023/03/31 08:36:44;;;;;;;0.30;0.30;;;11.70;99.90;;;;;;5056067;28;20457;-82
2023/03/31 08:39:11;;;;;;;0.40;0.40;;;12.00;99.90;;;;;;5055831;28;20470;-82
2023/03/31 08:41:48;;;;;;;0.50;0.30;;;12.20;99.90;;;;;;5056072;28;20481;-82
2023/03/31 08:44:21;;;;;;;0.40;0.40;;;12.40;99.90;;;;;;5055771;28;20442;-82
2023/03/31 08:46:48;;;;;;;0.70;0.50;;;12.50;99.90;;;;;;5055878;28;20976;-83
2023/03/31 08:49:17;;;;;;;0.40;0.40;;;12.70;99.90;;;;;;5060473;28;20486;-82
2023/03/31 08:51:48;;;;;;;1.23;0.40;;;13.00;99.90;;;;;;5060389;28;20446;-83
2023/03/31 08:54:20;;;;;;;0.30;0.30;;;13.30;99.90;;;;;;5058992;28;21003;-83
2023/03/31 08:56:49;;;;;;;1.03;0.50;;;13.70;99.90;;;;;;5059067;28;20426;-83
2023/03/31 08:59:30;;;;;;;0.50;0.40;;;13.90;99.90;;;;;;5058578;28;20467;-80
2023/03/31 09:02:04;;;;;;;2.10;0.47;;;14.00;99.90;;;;;;5059000;28;20443;-83
2023/03/31 09:05:01;;;;;;;2.93;0.43;;;14.20;99.90;;;;;;5058807;28;20441;-83
2023/03/31 09:07:37;;;;;;;1.27;0.70;;;14.80;99.90;;;;;;5041949;28;20465;-84
2023/03/31 09:10:20;;;;;;;0.73;0.30;;;15.10;99.90;;;;;;5058428;28;20497;-84
2023/03/31 09:12:54;;;;;;;0.80;0.50;;;15.30;99.90;;;;;;5059087;28;20438;-84
2023/03/31 09:15:27;;;;;;;0.40;0.30;;;15.40;99.90;;;;;;5057036;28;20431;-80
2023/03/31 09:17:57;;;;;;;0.37;0.30;;;15.90;99.90;;;;;;5057288;28;20438;-80
2023/03/31 09:20:29;;;;;;;0.60;0.30;;;16.70;99.90;;;;;;5056494;28;20878;-80
2023/03/31 09:23:00;;;;;;;2.60;0.60;;;17.30;99.90;;;;;;5056969;28;20407;-80
2023/03/31 09:25:31;;;;;;;0.40;0.30;;;17.60;99.90;;;;;;5056539;28;20447;-80
2023/03/31 09:28:02;;;;;;;0.53;0.30;;;17.30;99.90;;;;;;5057201;28;20830;-80
2023/03/31 09:30:32;;;;;;;0.40;0.40;;;16.80;99.90;;;;;;5056598;28;20997;-82
2023/03/31 09:33:10;;;;;;;0.50;0.40;;;16.30;99.90;;;;;;5058287;28;20439;-82
2023/03/31 09:35:38;;;;;;;0.43;0.40;;;15.70;99.90;;;;;;5058001;28;20411;-82
2023/03/31 09:38:05;;;;;;;3.80;0.40;;;15.10;99.90;;;;;;5056412;28;20949;-82
2023/03/31 09:40:32;;;;;;;0.40;0.40;;;14.70;99.90;;;;;;5057437;28;20874;-82
2023/03/31 09:43:01;;;;;;;1.83;0.47;;;14.70;99.90;;;;;;5057608;28;20452;-82
2023/03/31 09:45:30;;;;;;;0.30;0.30;;;14.70;99.90;;;;;;5056802;28;20449;-81
2023/03/31 09:47:58;;;;;;;0.40;0.30;;;14.70;99.90;;;;;;5058321;28;20447;-81
2023/03/31 09:50:27;;;;;;;1.27;0.40;;;14.80;99.90;;;;;;5056324;28;20493;-81
2023/03/31 09:52:57;;;;;;;0.30;0.30;;;14.80;99.90;;;;;;5056014;28;20493;-82
2023/03/31 09:55:28;;;;;;;0.40;0.33;;;14.80;99.90;;;;;;5055364;28;20512;-81
2023/03/31 09:57:55;;;;;;;0.30;0.30;;;15.10;99.90;;;;;;5056742;28;20438;-81
2023/03/31 10:00:23;;;;;;;0.40;0.30;;;15.80;99.90;;;;;;5055529;28;20475;-81
2023/03/31 10:02:52;;;;;;;1.43;0.80;;;16.30;99.90;;;;;;5055673;28;20457;-81
2023/03/31 10:05:28;;;;;;;0.60;0.40;;;16.30;99.90;;;;;;5055945;28;20435;-81
2023/03/31 10:08:24;;;;;;;0.40;0.40;;;15.90;99.90;;;;;;5055678;28;20431;-80
2023/03/31 10:10:53;;;;;;;0.80;0.50;;;15.60;99.90;;;;;;5058619;28;20497;-84
2023/03/31 10:13:22;;;;;;;2.80;0.40;;;15.30;99.90;;;;;;5059261;28;20450;-84
2023/03/31 10:15:52;;;;;;;0.67;0.67;;;16.00;99.90;;;;;;5054530;28;20447;-78
2023/03/31 10:18:31;;;;;;;0.40;0.30;;;16.90;99.90;;;;;;5054729;28;20423;-81
2023/03/31 10:20:59;;;;;;;0.30;0.30;;;17.40;99.90;;;;;;5057417;28;20445;-83
2023/03/31 10:23:29;;;;;;;0.30;0.30;;;17.80;99.90;;;;;;5057539;28;20458;-83
2023/03/31 10:25:56;;;;;;;1.17;0.40;;;18.40;99.90;;;;;;5057794;28;20910;-85
2023/03/31 10:28:23;;;;;;;0.30;0.30;;;18.60;99.90;;;;;;5059164;28;20450;-88
2023/03/31 10:30:52;;;;;;;0.40;0.30;;;18.30;99.90;;;;;;5058614;28;20486;-88
2023/03/31 10:33:24;;;;;;;0.50;0.43;;;18.50;99.90;;;;;;5059181;28;20434;-89
2023/03/31 10:35:55;;;;;;;0.40;0.30;;;19.20;99.90;;;;;;5059853;28;20487;-88
2023/03/31 10:38:26;;;;;;;1.33;0.50;;;18.70;99.90;;;;;;5062548;28;20411;-88
2023/03/31 10:40:56;;;;;;;1.63;0.67;;;18.90;99.90;;;;;;5061407;28;20841;-87
2023/03/31 10:43:27;;;;;;;0.90;0.30;;;19.30;99.90;;;;;;5063280;28;20450;-87
2023/03/31 10:45:56;;;;;;;6.47;0.50;;;19.40;98.90;;;;;;5061729;28;20442;-88
2023/03/31 10:48:27;;;;;;;0.60;0.40;;;18.80;97.20;;;;;;5060558;28;20446;-88
2023/03/31 10:50:55;;;;;;;0.50;0.40;;;18.80;99.80;;;;;;5061178;28;20469;-87
2023/03/31 10:53:22;;;;;;;2.60;0.30;;;18.80;98.20;;;;;;5060635;28;20438;-87
2023/03/31 10:56:09;;;;;;;0.30;0.30;;;18.70;99.40;;;;;;5061058;28;20453;-88
2023/03/31 10:59:03;;;;;;;0.40;0.40;;;18.50;99.00;;;;;;5061027;28;20439;-88
2023/03/31 11:01:41;;;;;;;2.23;0.30;;;18.00;97.90;;;;;;5061526;28;20447;-88
2023/03/31 11:04:42;;;;;;;0.63;0.50;;;17.90;99.90;;;;;;5060056;28;20492;-88
2023/03/31 11:07:20;;;;;;;0.80;0.40;;;17.40;99.00;;;;;;5025312;28;20454;-87
2023/03/31 11:09:58;;;;;;;1.17;0.70;;;16.70;99.90;;;;;;5061010;28;20499;-88
2023/03/31 11:12:31;;;;;;;0.57;0.47;;;16.40;99.90;;;;;;5060652;28;20437;-88
2023/03/31 11:15:10;;;;;;;0.83;0.30;;;15.60;99.90;;;;;;5059477;28;20426;-86
2023/03/31 11:17:53;;;;;;;0.30;0.30;;;14.50;99.90;;;;;;5055104;28;20481;-81
2023/03/31 11:20:28;;;;;;;0.30;0.20;;;13.50;99.90;;;;;;5055087;28;20467;-80
2023/03/31 11:22:59;;;;;;;0.60;0.30;;;12.00;99.90;;;;;;5055565;28;20430;-81
2023/03/31 11:25:34;;;;;;;0.50;0.40;;;11.00;99.90;;;;;;5054892;28;20431;-80
2023/03/31 11:28:26;;;;;;;0.37;0.27;;;10.40;99.90;;;;;;5054092;28;20441;-81
2023/03/31 11:31:01;;;;;;;0.30;0.20;;;10.00;99.90;;;;;;5054462;28;20858;-81
2023/03/31 11:33:46;;;;;;;0.47;0.30;;;9.80;99.90;;;;;;5055167;28;20434;-81
2023/03/31 11:36:28;;;;;;;0.30;0.30;;;9.60;99.90;;;;;;5056146;28;20434;-83
2023/03/31 11:39:18;;;;;;;0.30;0.23;;;9.50;99.90;;;;;;5056865;28;20502;-82
2023/03/31 11:41:49;;;;;;;0.30;0.23;;;9.20;99.90;;;;;;5057952;28;20439;-83
2023/03/31 11:44:19;;;;;;;0.30;0.20;;;9.00;99.90;;;;;;5059481;28;20521;-83
2023/03/31 11:46:51;;;;;;;0.30;0.20;;;9.10;99.90;;;;;;5058940;28;20418;-83
2023/03/31 11:49:22;;;;;;;0.30;0.30;;;9.30;99.90;;;;;;5058172;28;20491;-84
2023/03/31 11:51:54;;;;;;;0.30;0.20;;;9.60;99.90;;;;;;5059818;28;20447;-84
2023/03/31 11:54:27;;;;;;;0.30;0.30;;;9.90;99.90;;;;;;5059725;28;20427;-84
2023/03/31 11:56:55;;;;;;;0.30;0.30;;;10.10;99.90;;;;;;5058809;28;20439;-85
2023/03/31 11:59:26;;;;;;;0.30;0.30;;;10.40;99.90;;;;;;5059103;28;20545;-85
2023/03/31 12:02:00;;;;;;;2.00;0.30;;;10.70;99.90;;;;;;5059714;28;20490;-85
2023/03/31 12:04:34;;;;;;;0.30;0.30;;;10.70;99.90;;;;;;5059633;28;20521;-85
2023/03/31 12:07:09;;;;;;;0.53;0.50;;;10.90;99.90;;;;;;5060244;28;20446;-86
2023/03/31 12:09:44;;;;;;;0.30;0.20;;;10.80;99.90;;;;;;5057104;28;20473;-86
2023/03/31 12:12:16;;;;;;;0.30;0.30;;;10.70;99.90;;;;;;5059188;28;20448;-86
2023/03/31 12:14:49;;;;;;;0.30;0.30;;;10.70;99.90;;;;;;5058617;28;20446;-87
2023/03/31 12:17:19;;;;;;;0.30;0.30;;;10.70;99.90;;;;;;5059879;28;20926;-87
2023/03/31 12:19:49;;;;;;;0.30;0.30;;;11.10;99.90;;;;;;5067349;28;20470;-88
2023/03/31 12:22:23;;;;;;;0.30;0.30;;;11.30;99.90;;;;;;5069785;28;20442;-88
2023/03/31 12:24:52;;;;;;;0.40;0.30;;;11.60;99.90;;;;;;5063595;28;20805;-88
2023/03/31 12:27:23;;;;;;;0.30;0.30;;;11.80;99.90;;;;;;5063546;28;20941;-87
2023/03/31 12:29:57;;;;;;;0.30;0.30;;;11.80;99.90;;;;;;5063213;28;20478;-89
2023/03/31 12:32:27;;;;;;;4.00;0.40;;;11.80;99.90;;;;;;5063852;28;20442;-87
2023/03/31 12:34:59;;;;;;;0.57;0.30;;;11.70;99.90;;;;;;5060126;28;20992;-86
2023/03/31 12:37:59;;;;;;;0.30;0.30;;;11.80;99.90;;;;;;5059631;28;20439;-85
2023/03/31 12:40:51;;;;;;;0.30;0.20;;;11.80;99.90;;;;;;5058439;28;20841;-85
2023/03/31 12:43:36;;;;;;;0.60;0.60;;;11.80;99.90;;;;;;5058504;28;20442;-86
2023/03/31 12:46:24;;;;;;;0.30;0.20;;;11.80;99.90;;;;;;5062155;28;20433;-86
2023/03/31 12:49:02;;;;;;;0.30;0.27;;;11.80;99.90;;;;;;5059986;28;20470;-87
2023/03/31 12:51:46;;;;;;;0.40;0.33;;;11.80;99.90;;;;;;5059594;28;20865;-89
2023/03/31 12:54:32;;;;;;;0.30;0.20;;;12.00;99.90;;;;;;5058871;28;20434;-88
2023/03/31 12:57:16;;;;;;;0.30;0.30;;;12.10;99.90;;;;;;5065580;28;20427;-87
2023/03/31 12:59:44;;;;;;;0.30;0.27;;;12.20;99.90;;;;;;5063076;28;20470;-87
2023/03/31 13:02:23;;;;;;;0.40;0.30;;;12.30;99.90;;;;;;5065387;28;20962;-87
2023/03/31 13:04:50;;;;;;;0.30;0.30;;;12.40;99.90;;;;;;5062931;28;20439;-86
2023/03/31 13:07:37;;;;;;;0.77;0.30;;;12.50;99.90;;;;;;5062226;28;20461;-87
2023/03/31 13:10:27;;;;;;;0.60;0.53;;;12.80;99.90;;;;;;5058310;28;20509;-87
2023/03/31 13:13:01;;;;;;;0.50;0.50;;;12.90;99.90;;;;;;5059184;28;20485;-87
2023/03/31 13:15:29;;;;;;;0.30;0.30;;;12.80;99.90;;;;;;5059662;28;20447;-87